Flight Track Log - Related Links

Times and Time Zones

All times are in EDT time to prevent confusion due to time zone crossing. See the SWA385 flight status page for this flight to view local times or setup timezone preferences in your user account.

Time Position Orientation Groundspeed Altitude Reporting Facility
EDT Latitude Longitude Course Direction KTS MPH feet Rate Location/Type
Thu 07:28:36 PM 41.8000 -87.7333 277° West 176 203 1,800  Level Chicago TRACON
Thu 07:29:37 PM 41.8167 -87.8000 289° West 251 289 3,000 699 Climbing Chicago TRACON
Thu 07:30:19 PM 41.7953 -87.8567 243° Southwest 258 297 3,000 1,731 Level Chicago Center
Thu 07:31:21 PM 41.7517 -87.9403 235° Southwest 266 306 6,000 3,435 Climbing Chicago Center
Thu 07:32:23 PM 41.7403 -88.0567 263° West 286 329 10,100 2,903 Climbing Chicago Center
Thu 07:33:25 PM 41.7606 -88.1617 285° West 300 345 12,000 1,548 Climbing Chicago Center
Thu 07:34:00 PM 41.8690 -88.6085 277° West  Level FlightAware Approximate
Thu 07:34:27 PM 41.7661 -88.2842 274° West 331 381 13,300  Level Chicago Center
Thu 07:35:29 PM 41.7722 -88.4236 273° West 373 429 14,900 864 Climbing Chicago Center
Thu 07:36:32 PM 41.8056 -88.5903 285° West 396 456 15,100 1,008 Climbing Chicago Center
Thu 07:37:34 PM 41.8442 -88.7297 290° West 402 463 17,000 968 Climbing Chicago Center
Thu 07:38:36 PM 41.8933 -88.8664 296° West 408 470 17,100 1,306 Climbing Chicago Center
Thu 07:39:38 PM 41.9400 -89.0019 295° West 407 468 19,700 2,371 Climbing Chicago Center
Thu 07:40:40 PM 41.9889 -89.1378 296° West 406 467 22,000 2,274 Climbing Chicago Center
Thu 07:41:42 PM 42.0472 -89.3061 295° West 420 483 24,400 2,081 Climbing Chicago Center
Thu 07:42:44 PM 42.0614 -89.4653 277° West 450 518 26,300 1,790 Climbing Chicago Center
Thu 07:43:46 PM 42.0594 -89.6308 269° West 445 512 28,100 1,839 Climbing Chicago Center
Thu 07:44:48 PM 42.0578 -89.7956 269° West 445 512 30,100 1,742 Climbing Chicago Center
Thu 07:45:50 PM 42.0561 -89.9758 269° West 443 510 31,700 1,403 Climbing Chicago Center
Thu 07:46:52 PM 42.0536 -90.1417 269° West 446 513 33,000 1,452 Climbing Chicago Center
Thu 07:47:54 PM 42.0569 -90.3058 272° West 446 513 34,700 1,440 Climbing Chicago Center
Thu 07:48:57 PM 42.0642 -90.4664 274° West 436 502 36,000 624 Climbing Chicago Center
Thu 07:49:59 PM 42.0736 -90.6550 274° West 427 491 36,000  Level Chicago Center
Thu 07:51:01 PM 42.0794 -90.8111 273° West 422 486 36,000  Level Chicago Center
Thu 07:52:03 PM 42.0850 -90.9664 273° West 420 483 36,000  Level Chicago Center
Thu 07:53:05 PM 42.0897 -91.1228 272° West 419 482 36,000  Level Chicago Center
Thu 07:54:07 PM 42.0958 -91.2772 273° West 418 481 36,000  Level Chicago Center
Thu 07:55:09 PM 42.1022 -91.4625 273° West 415 478 36,000  Level Chicago Center
Thu 07:56:11 PM 42.1075 -91.6186 273° West 418 481 36,000  Level Chicago Center
Thu 07:57:13 PM 42.1125 -91.7725 273° West 416 479 36,000  Level Chicago Center
Thu 07:58:15 PM 42.1175 -91.9292 273° West 420 483 36,000  Level Chicago Center
Thu 07:59:17 PM 42.1214 -92.0858 272° West 420 483 36,000  Level Chicago Center
Thu 08:00:19 PM 42.1261 -92.2747 272° West 424 488 36,000  Level Chicago Center
Thu 08:01:21 PM 42.1314 -92.4322 273° West 424 488 36,000  Level Chicago Center
Thu 08:02:24 PM 42.1356 -92.5894 272° West 424 488 36,000  Level Chicago Center
Thu 08:03:26 PM 42.1383 -92.7456 271° West 422 486 36,000  Level Chicago Center
Thu 08:04:16 PM 42.1408 -92.8719 272° West 422 486 36,000  Level Minneapolis Center
Thu 08:05:18 PM 42.1447 -93.0578 272° West 419 482 36,000  Level Minneapolis Center
Thu 08:06:21 PM 42.1481 -93.2136 272° West 419 482 36,000  Level Minneapolis Center
Thu 08:07:23 PM 42.1517 -93.3681 272° West 417 480 36,000  Level Minneapolis Center
Thu 08:08:25 PM 42.1536 -93.5239 271° West 415 478 36,000  Level Minneapolis Center
Thu 08:09:27 PM 42.1561 -93.6742 271° West 413 475 36,000  Level Minneapolis Center
Thu 08:10:29 PM 42.1586 -93.8586 271° West 414 476 36,000  Level Minneapolis Center
Thu 08:11:31 PM 42.1608 -94.0169 271° West 412 474 36,000  Level Minneapolis Center
Thu 08:12:33 PM 42.1633 -94.1714 271° West 414 476 36,000  Level Minneapolis Center
Thu 08:13:35 PM 42.1642 -94.3258 270° West 414 476 36,000  Level Minneapolis Center
Thu 08:14:37 PM 42.1650 -94.4806 270° West 415 478 36,000  Level Minneapolis Center
Thu 08:15:40 PM 42.1656 -94.6358 270° West 415 478 36,000  Level Minneapolis Center
Thu 08:16:42 PM 42.1672 -94.8214 271° West 414 476 36,000  Level Minneapolis Center
Thu 08:17:44 PM 42.1675 -94.9772 270° West 417 480 36,000  Level Minneapolis Center
Thu 08:18:46 PM 42.1675 -95.1308 270° West 412 474 36,000  Level Minneapolis Center
Thu 08:19:48 PM 42.1686 -95.2861 271° West 414 476 36,000  Level Minneapolis Center
Thu 08:20:50 PM 42.1689 -95.4417 270° West 416 479 36,000  Level Minneapolis Center
Thu 08:21:52 PM 42.1686 -95.5936 270° West 411 473 36,000  Level Minneapolis Center
Thu 08:22:54 PM 42.1667 -95.7797 269° West 414 476 36,000  Level Minneapolis Center
Thu 08:23:56 PM 42.1672 -95.9347 270° West 415 478 36,000  Level Minneapolis Center
Thu 08:24:59 PM 42.1653 -96.0886 269° West 415 478 36,000  Level Minneapolis Center
Thu 08:26:01 PM 42.1636 -96.2467 269° West 421 484 36,000  Level Minneapolis Center
Thu 08:27:03 PM 42.1625 -96.4031 270° West 420 483 36,000  Level Minneapolis Center
Thu 08:28:05 PM 42.1614 -96.5917 270° West 421 484 36,000  Level Minneapolis Center
Thu 08:29:07 PM 42.1586 -96.7500 269° West 424 488 36,000  Level Minneapolis Center
Thu 08:30:09 PM 42.1572 -96.9103 269° West 428 493 36,000  Level Minneapolis Center
Thu 08:31:11 PM 42.1550 -97.0675 269° West 426 490 36,000  Level Minneapolis Center
Thu 08:32:13 PM 42.1525 -97.2275 269° West 426 490 36,000  Level Minneapolis Center
Thu 08:33:15 PM 42.1497 -97.4181 269° West 425 489 36,000  Level Minneapolis Center
Thu 08:34:17 PM 42.1450 -97.5772 268° West 427 491 36,000  Level Minneapolis Center
Thu 08:35:19 PM 42.1422 -97.7356 269° West 425 489 36,000  Level Minneapolis Center
Thu 08:36:22 PM 42.1386 -97.8850 268° West 427 491 36,000  Level Minneapolis Center
Thu 08:37:24 PM 42.1350 -98.0744 269° West 423 487 36,000  Level Minneapolis Center
Thu 08:38:26 PM 42.1311 -98.2339 268° West 426 490 36,000  Level Minneapolis Center
Thu 08:39:28 PM 42.1264 -98.3903 268° West 422 486 36,000  Level Minneapolis Center
Thu 08:40:30 PM 42.1225 -98.5486 268° West 423 487 36,000  Level Minneapolis Center
Thu 08:41:32 PM 42.1186 -98.7058 268° West 422 486 36,000  Level Minneapolis Center
Thu 08:42:34 PM 42.1131 -98.8631 267° West 423 487 36,000  Level Minneapolis Center
Thu 08:43:36 PM 42.1067 -99.0511 267° West 421 484 36,000  Level Minneapolis Center
Thu 08:44:38 PM 42.1025 -99.2075 268° West 421 484 36,000  Level Minneapolis Center
Thu 08:45:40 PM 42.0981 -99.3656 268° West 424 488 36,000  Level Minneapolis Center
Thu 08:46:42 PM 42.0919 -99.5236 267° West 424 488 36,000  Level Minneapolis Center
Thu 08:47:44 PM 42.0850 -99.6811 267° West 423 487 36,000  Level Minneapolis Center
Thu 08:48:46 PM 42.0781 -99.8706 267° West 423 487 36,000  Level Minneapolis Center
Thu 08:49:49 PM 42.0708 -100.0292 267° West 425 489 36,000  Level Minneapolis Center
Thu 08:50:51 PM 42.0639 -100.1867 267° West 423 487 36,000  Level Minneapolis Center
Thu 08:51:53 PM 42.0569 -100.3433 267° West 421 484 36,000  Level Minneapolis Center
Thu 08:52:55 PM 42.0503 -100.4986 267° West 419 482 36,000  Level Minneapolis Center
Thu 08:53:57 PM 42.0436 -100.6533 267° West 417 480 36,000  Level Minneapolis Center
Thu 08:55:20 PM 42.0328 -100.8842 266° West 416 479 36,000  Level Denver Center
Thu 08:56:22 PM 42.0261 -101.0328 267° West 417 480 36,000  Level Denver Center
Thu 08:57:24 PM 42.0169 -101.2069 266° West 419 482 36,000  Level Denver Center
Thu 08:58:26 PM 42.0089 -101.3572 266° West 422 486 36,000  Level Denver Center
Thu 08:59:27 PM 42.0014 -101.5061 266° West 419 482 36,000  Level Denver Center
Thu 09:00:30 PM 41.9919 -101.6822 266° West 424 488 36,000  Level Denver Center
Thu 09:01:32 PM 41.9833 -101.8550 266° West 418 481 36,000  Level Denver Center
Thu 09:02:33 PM 41.9733 -102.0047 265° West 418 481 36,000  Level Denver Center
Thu 09:03:35 PM 41.9631 -102.1775 265° West 417 480 36,000  Level Denver Center
Thu 09:04:37 PM 41.9525 -102.3231 264° West 414 476 36,000  Level Denver Center
Thu 09:05:39 PM 41.9425 -102.4931 266° West 411 473 36,000  Level Denver Center
Thu 09:06:41 PM 41.9331 -102.6392 265° West 410 472 36,000  Level Denver Center
Thu 09:07:43 PM 41.9233 -102.8075 266° West 406 467 36,000  Level Denver Center
Thu 09:08:45 PM 41.9128 -102.9544 265° West 410 472 36,000  Level Denver Center
Thu 09:09:47 PM 41.9028 -103.0997 265° West 409 471 36,000  Level Denver Center
Thu 09:10:49 PM 41.8911 -103.2717 265° West 412 474 36,000  Level Denver Center
Thu 09:11:51 PM 41.8811 -103.4183 265° West 413 475 36,000 581 Level Denver Center
Thu 09:12:53 PM 41.8689 -103.5883 265° West 410 472 37,200 882 Climbing Denver Center
Thu 09:14:07 PM 41.8589 -103.7342 265° West 409 471 38,000 353 Climbing Denver Center
Thu 09:15:09 PM 41.8444 -103.9281 264° West 408 470 38,000  Level Denver Center
Thu 09:16:11 PM 41.8331 -104.0744 264° West 411 473 38,000  Level Denver Center
Thu 09:17:12 PM 41.8217 -104.2236 264° West 417 480 38,000  Level Denver Center
Thu 09:18:14 PM 41.8072 -104.3964 264° West 416 479 38,000  Level Denver Center
Thu 09:19:16 PM 41.7939 -104.5700 264° West 419 482 38,000  Level Denver Center
Thu 09:20:18 PM 41.7811 -104.7208 264° West 422 486 38,000  Level Denver Center
Thu 09:21:20 PM 41.7686 -104.8714 264° West 424 488 38,000  Level Denver Center
Thu 09:22:22 PM 41.7547 -105.0436 264° West 417 480 38,000  Level Denver Center
Thu 09:23:24 PM 41.7425 -105.1897 264° West 413 475 38,000  Level Denver Center
Thu 09:24:26 PM 41.7275 -105.3578 263° West 408 470 38,000  Level Denver Center
Thu 09:25:28 PM 41.7156 -105.5031 264° West 410 472 38,000  Level Denver Center
Thu 09:26:30 PM 41.7000 -105.6717 263° West 410 472 38,000  Level Denver Center
Thu 09:27:31 PM 41.6858 -105.8172 263° West 410 472 38,000  Level Denver Center
Thu 09:28:33 PM 41.6708 -105.9881 263° West 413 475 38,000  Level Denver Center
Thu 09:29:35 PM 41.6572 -106.1353 263° West 416 479 38,000  Level Denver Center
Thu 09:30:37 PM 41.6442 -106.2569 262° West 416 479 38,000  Level Denver Center
Thu 09:31:39 PM 41.6258 -106.4522 263° West 415 478 38,000  Level Denver Center
Thu 09:32:41 PM 41.6119 -106.5989 263° West 410 472 38,000  Level Denver Center
Thu 09:33:43 PM 41.5942 -106.7667 262° West 409 471 38,000  Level Denver Center
Thu 09:34:45 PM 41.5808 -106.9100 263° West 407 468 38,000  Level Denver Center
Thu 09:35:47 PM 41.5642 -107.0772 262° West 406 467 38,000  Level Denver Center
Thu 09:36:49 PM 41.5492 -107.2189 262° West 406 467 38,000  Level Denver Center
Thu 09:37:51 PM 41.5328 -107.3836 262° West 402 463 38,000  Level Denver Center
Thu 09:38:53 PM 41.5181 -107.5253 262° West 403 464 38,000  Level Denver Center
Thu 09:39:55 PM 41.5022 -107.6686 262° West 407 468 38,000  Level Denver Center
Thu 09:40:56 PM 41.4828 -107.8364 261° West 409 471 38,000  Level Denver Center
Thu 09:41:58 PM 41.4675 -107.9800 262° West 410 472 38,000  Level Denver Center
Thu 09:43:00 PM 41.4525 -108.1244 262° West 411 473 38,000  Level Denver Center
Thu 09:44:02 PM 41.4325 -108.2925 261° West 412 474 38,000  Level Denver Center
Thu 09:44:48 PM 41.4178 -108.4144 261° West 412 474 38,000  Level Salt Lake Center
Thu 09:45:50 PM 41.4011 -108.5589 261° West 412 474 38,000  Level Salt Lake Center
Thu 09:46:51 PM 41.3825 -108.7272 262° West 412 474 38,000  Level Salt Lake Center
Thu 09:47:53 PM 41.3644 -108.8694 260° West 407 468 38,000  Level Salt Lake Center
Thu 09:48:55 PM 41.3428 -109.0364 260° West 406 467 38,000  Level Salt Lake Center
Thu 09:49:56 PM 41.3242 -109.1842 261° West 411 473 38,000  Level Salt Lake Center
Thu 09:50:58 PM 41.3072 -109.3278 261° West 408 470 38,000  Level Salt Lake Center
Thu 09:52:00 PM 41.2869 -109.4922 261° West 403 464 38,000  Level Salt Lake Center
Thu 09:53:02 PM 41.2703 -109.6300 261° West 397 457 38,000  Level Salt Lake Center
Thu 09:54:03 PM 41.2494 -109.7950 261° West 403 464 38,000  Level Salt Lake Center
Thu 09:55:05 PM 41.2311 -109.9356 260° West 405 466 38,000  Level Salt Lake Center
Thu 09:56:07 PM 41.2131 -110.0756 260° West 401 461 38,000  Level Salt Lake Center
Thu 09:57:09 PM 41.1914 -110.2411 260° West 407 468 38,000  Level Salt Lake Center
Thu 09:58:10 PM 41.1719 -110.3828 260° West 407 468 38,000  Level Salt Lake Center
Thu 09:59:12 PM 41.1506 -110.5475 260° West 406 467 38,000  Level Salt Lake Center
Thu 10:00:14 PM 41.1306 -110.6897 259° West 409 471 38,000  Level Salt Lake Center
Thu 10:01:16 PM 41.1089 -110.8522 260° West 410 472 38,000  Level Salt Lake Center
Thu 10:02:18 PM 41.0883 -110.9994 260° West 408 470 38,000  Level Salt Lake Center
Thu 10:03:20 PM 41.0683 -111.1461 260° West 406 467 38,000  Level Salt Lake Center
Thu 10:04:22 PM 41.0478 -111.2919 259° West 402 463 38,000  Level Salt Lake Center
Thu 10:05:23 PM 41.0275 -111.4389 260° West 405 466 38,000  Level Salt Lake Center
Thu 10:06:25 PM 41.0064 -111.5853 259° West 405 466 38,000  Level Salt Lake Center
Thu 10:07:27 PM 40.9811 -111.7622 259° West 403 464 38,000  Level Salt Lake Center
Thu 10:08:29 PM 40.9625 -111.8839 259° West 403 464 38,000  Level Salt Lake Center
Thu 10:09:30 PM 40.9364 -112.0619 259° West 405 466 38,000  Level Salt Lake Center
Thu 10:10:32 PM 40.9150 -112.2072 259° West 401 461 38,000  Level Salt Lake Center
Thu 10:11:34 PM 40.8936 -112.3514 259° West 401 461 38,000  Level Salt Lake Center
Thu 10:12:36 PM 40.8722 -112.4950 259° West 398 458 38,000  Level Salt Lake Center
Thu 10:13:37 PM 40.8503 -112.6400 259° West 400 460 38,000  Level Salt Lake Center
Thu 10:14:39 PM 40.8267 -112.7856 258° West 406 467 38,000  Level Salt Lake Center
Thu 10:15:41 PM 40.8036 -112.9308 258° West 405 466 38,000  Level Salt Lake Center
Thu 10:16:42 PM 40.7817 -113.0753 259° West 401 461 38,000  Level Salt Lake Center
Thu 10:17:44 PM 40.7542 -113.2486 258° West 400 460 38,000  Level Salt Lake Center
Thu 10:18:46 PM 40.7333 -113.3922 259° West 399 459 38,000  Level Salt Lake Center
Thu 10:19:47 PM 40.7061 -113.5356 256° West 403 464 38,000  Level Salt Lake Center
Thu 10:20:49 PM 40.6833 -113.6800 258° West 403 464 38,000  Level Salt Lake Center
Thu 10:21:51 PM 40.6592 -113.8217 257° West 399 459 38,000  Level Salt Lake Center
Thu 10:22:53 PM 40.6364 -113.9642 258° West 400 460 38,000  Level Salt Lake Center
Thu 10:23:55 PM 40.6119 -114.1058 257° West 399 459 38,000  Level Salt Lake Center
Thu 10:24:56 PM 40.5844 -114.2753 258° West 397 457 38,000  Level Salt Lake Center
Thu 10:25:58 PM 40.5597 -114.4164 257° West 397 457 38,000  Level Salt Lake Center
Thu 10:27:00 PM 40.5364 -114.5567 258° West 394 453 38,000  Level Salt Lake Center
Thu 10:28:02 PM 40.5119 -114.6978 257° West 396 456 38,000  Level Salt Lake Center
Thu 10:29:03 PM 40.4872 -114.8353 257° West 395 455 38,000  Level Salt Lake Center
Thu 10:30:05 PM 40.4606 -114.9919 257° West 394 453 38,000  Level Salt Lake Center
Thu 10:31:07 PM 40.4389 -115.1250 258° West 391 450 38,000  Level Salt Lake Center
Thu 10:32:09 PM 40.4117 -115.2806 257° West 392 451 38,000  Level Salt Lake Center
Thu 10:33:11 PM 40.3864 -115.4136 256° West 392 451 38,000  Level Salt Lake Center
Thu 10:34:12 PM 40.3581 -115.5689 257° West 392 451 38,000  Level Salt Lake Center
Thu 10:35:14 PM 40.3333 -115.7006 256° West 390 449 38,000  Level Salt Lake Center
Thu 10:36:16 PM 40.3017 -115.8575 255° West 397 457 38,000  Level Salt Lake Center
Thu 10:37:18 PM 40.2781 -115.9917 257° West 396 456 38,000  Level Salt Lake Center
Thu 10:38:20 PM 40.2528 -116.1267 256° West 398 458 38,000  Level Salt Lake Center
Thu 10:39:22 PM 40.2222 -116.2850 256° West 400 460 38,000  Level Salt Lake Center
Thu 10:40:23 PM 40.1967 -116.4178 256° West 394 453 38,000  Level Salt Lake Center
Thu 10:41:25 PM 40.1675 -116.5736 256° West 393 452 38,000  Level Salt Lake Center
Thu 10:42:27 PM 40.1408 -116.7072 255° West 393 452 38,000  Level Salt Lake Center
Thu 10:43:29 PM 40.1147 -116.8419 256° West 395 455 38,000  Level Salt Lake Center
Thu 10:44:48 PM 40.0772 -117.0439 256° West 396 456 38,000  Level Oakland Center
Thu 10:45:32 PM 40.0586 -117.1336 255° West 396 456 38,000  Level Salt Lake Center
Thu 10:46:34 PM 40.0278 -117.2900 256° West 396 456 38,000  Level Salt Lake Center
Thu 10:47:36 PM 39.9981 -117.4231 254° West 399 459 38,000  Level Salt Lake Center
Thu 10:48:38 PM 39.9633 -117.5522 251° West 396 456 38,000  Level Salt Lake Center
Thu 10:49:39 PM 39.9256 -117.7033 252° West 392 451 38,000  Level Salt Lake Center
Thu 10:50:41 PM 39.8908 -117.8333 251° West 395 455 38,000  Level Salt Lake Center
Thu 10:51:56 PM 39.8486 -117.9986 252° West 395 455 38,000  Level Oakland Center
Thu 10:52:58 PM 39.8133 -118.1317 251° West 393 452 38,000 -585 Level Oakland Center
Thu 10:53:59 PM 39.7703 -118.2931 251° West 391 450 36,800 -1,082 Descending Oakland Center
Thu 10:55:00 PM 39.7350 -118.4258 251° West 391 450 35,800 -927 Descending Oakland Center
Thu 10:56:02 PM 39.6978 -118.5633 251° West 405 466 34,900 -878 Descending Oakland Center
Thu 10:57:03 PM 39.6600 -118.7036 251° West 414 476 34,000 -443 Descending Oakland Center
Thu 10:58:04 PM 39.6222 -118.8428 251° West 415 478 34,000  Level Oakland Center
Thu 10:59:06 PM 39.5847 -118.9811 251° West 414 476 34,000  Level Oakland Center
Thu 11:00:07 PM 39.5456 -119.1167 249° West 407 468 34,000 -295 Level Oakland Center
Thu 11:01:08 PM 39.4994 -119.2831 250° West 410 472 33,400 -1,082 Descending Oakland Center
Thu 11:02:09 PM 39.4689 -119.4253 254° West 416 479 31,800 -1,707 Descending Oakland Center
Thu 11:03:11 PM 39.4650 -119.5792 268° West 431 496 29,900 -1,902 Descending Oakland Center
Thu 11:04:12 PM 39.4219 -119.7231 249° West 431 496 27,900 -1,967 Descending Oakland Center
Thu 11:05:13 PM 39.3747 -119.8742 248° West 451 519 25,900 -1,918 Descending Oakland Center
Thu 11:06:14 PM 39.3283 -120.0236 248° West 448 516 24,000 -1,073 Descending Oakland Center
Thu 11:07:16 PM 39.2822 -120.1675 248° West 440 506 23,700 -1,317 Descending Oakland Center
Thu 11:08:17 PM 39.2347 -120.3136 247° West 442 509 21,300 -2,410 Descending Oakland Center
Thu 11:09:18 PM 39.1914 -120.4528 248° West 421 484 18,800 -2,557 Descending Oakland Center
Thu 11:10:19 PM 39.1397 -120.6161 248° West 412 474 16,100 -1,475 Descending Oakland Center
Thu 11:11:20 PM 39.0981 -120.7461 248° West 397 457 15,800 -1,366 Descending Oakland Center
Thu 11:12:22 PM 39.0561 -120.8767 248° West 396 456 13,300 -2,439 Descending Oakland Center
Thu 11:13:23 PM 39.0158 -121.0031 248° West 385 443 10,800 -1,672 Descending Oakland Center
Thu 11:14:24 PM 38.9792 -121.1192 248° West 354 407 9,900 -1,075 Descending Oakland Center
Thu 11:15:09 PM 38.9500 -121.2000 245° Southwest 297 342 8,900 -1,576 Descending Northern Cal TRACON
Thu 11:16:03 PM 38.9167 -121.2833 243° Southwest 286 329 7,300 -1,850 Descending Northern Cal TRACON
Thu 11:17:09 PM 38.9000 -121.4000 260° West 277 319 5,200 -1,810 Descending Northern Cal TRACON
Thu 11:18:09 PM 38.9000 -121.5000 270° West 270 311 3,500 -1,400 Descending Northern Cal TRACON
Thu 11:19:09 PM 38.8667 -121.5667 237° Southwest 251 289 2,400 -842 Descending Northern Cal TRACON
Thu 11:20:03 PM 38.8167 -121.6000 207° Southwest 225 259 1,900 -600 Descending Northern Cal TRACON
Thu 11:21:09 PM 38.7667 -121.6000 180° South 141 162 1,200 -600 Descending Northern Cal TRACON
Thu 11:22:03 PM 38.7333 -121.6000 180° South 127 146 700 -411 Descending Northern Cal TRACON
Thu 11:23:35 PM 38.6944 -121.6014 182° South 135 155 200 -326 Descending Oakland Center
Thu 11:25:00 PM 38.6954 -121.5908 90° East  Level Estimated

Login

Don't have an account? Register now (free) for customized features, flight alerts, and more!